sensor_id;sensor_type;location;lat;lon;timestamp;pressure;altitude;pressure_sealevel;temperature;humidity
61554;BME280;47425;51.976;5.326;2023-11-19T00:02:13;100658.72;;;15.62;63.34
61554;BME280;47425;51.976;5.326;2023-11-19T00:04:40;100654.88;;;15.69;62.84
61554;BME280;47425;51.976;5.326;2023-11-19T00:07:08;100653.03;;;15.71;62.89
61554;BME280;47425;51.976;5.326;2023-11-19T00:09:35;100648.53;;;15.73;62.58
61554;BME280;47425;51.976;5.326;2023-11-19T00:12:03;100642.31;;;15.74;63.14
61554;BME280;47425;51.976;5.326;2023-11-19T00:14:30;100636.63;;;15.65;63.30
61554;BME280;47425;51.976;5.326;2023-11-19T00:16:57;100634.47;;;15.73;62.81
61554;BME280;47425;51.976;5.326;2023-11-19T00:19:23;100632.63;;;15.75;63.53
61554;BME280;47425;51.976;5.326;2023-11-19T00:21:50;100640.09;;;15.65;63.40
61554;BME280;47425;51.976;5.326;2023-11-19T00:24:18;100646.94;;;15.69;62.87
61554;BME280;47425;51.976;5.326;2023-11-19T00:26:46;100630.94;;;15.74;63.40
61554;BME280;47425;51.976;5.326;2023-11-19T00:29:13;100630.19;;;15.70;63.42
61554;BME280;47425;51.976;5.326;2023-11-19T00:31:39;100641.53;;;15.72;62.61
61554;BME280;47425;51.976;5.326;2023-11-19T00:34:06;100643.47;;;15.69;63.44
61554;BME280;47425;51.976;5.326;2023-11-19T00:36:32;100644.16;;;15.72;63.36
61554;BME280;47425;51.976;5.326;2023-11-19T00:39:00;100630.84;;;15.75;62.38
61554;BME280;47425;51.976;5.326;2023-11-19T00:41:28;100648.53;;;15.73;62.69
61554;BME280;47425;51.976;5.326;2023-11-19T00:43:54;100649.34;;;15.75;63.39
61554;BME280;47425;51.976;5.326;2023-11-19T00:46:21;100637.53;;;15.64;63.73
61554;BME280;47425;51.976;5.326;2023-11-19T00:48:47;100638.19;;;15.69;63.71
61554;BME280;47425;51.976;5.326;2023-11-19T00:51:15;100627.41;;;15.73;62.31
61554;BME280;47425;51.976;5.326;2023-11-19T00:53:41;100626.25;;;15.79;62.59
61554;BME280;47425;51.976;5.326;2023-11-19T00:56:08;100622.78;;;15.78;62.68
61554;BME280;47425;51.976;5.326;2023-11-19T00:58:38;100610.78;;;15.71;63.28
61554;BME280;47425;51.976;5.326;2023-11-19T01:01:05;100621.47;;;15.68;63.44
61554;BME280;47425;51.976;5.326;2023-11-19T01:03:31;100624.34;;;15.64;63.34
61554;BME280;47425;51.976;5.326;2023-11-19T01:05:59;100611.97;;;15.64;63.24
61554;BME280;47425;51.976;5.326;2023-11-19T01:08:27;100607.34;;;15.69;62.84
61554;BME280;47425;51.976;5.326;2023-11-19T01:10:54;100618.78;;;15.70;63.42
61554;BME280;47425;51.976;5.326;2023-11-19T01:13:20;100625.97;;;15.66;64.02
61554;BME280;47425;51.976;5.326;2023-11-19T01:15:48;100620.84;;;15.63;63.43
61554;BME280;47425;51.976;5.326;2023-11-19T01:18:17;100620.78;;;15.65;63.47
61554;BME280;47425;51.976;5.326;2023-11-19T01:20:43;100606.50;;;15.69;63.05
61554;BME280;47425;51.976;5.326;2023-11-19T01:23:09;100601.31;;;15.67;63.66
61554;BME280;47425;51.976;5.326;2023-11-19T01:25:36;100593.38;;;15.67;62.95
61554;BME280;47425;51.976;5.326;2023-11-19T01:28:03;100596.03;;;15.67;63.01
61554;BME280;47425;51.976;5.326;2023-11-19T01:30:31;100604.00;;;15.66;63.43
61554;BME280;47425;51.976;5.326;2023-11-19T01:32:59;100603.38;;;15.60;63.20
61554;BME280;47425;51.976;5.326;2023-11-19T01:35:25;100601.50;;;15.63;63.14
61554;BME280;47425;51.976;5.326;2023-11-19T01:37:52;100601.88;;;15.74;62.65
61554;BME280;47425;51.976;5.326;2023-11-19T01:40:20;100596.78;;;15.69;63.42
61554;BME280;47425;51.976;5.326;2023-11-19T01:42:48;100599.34;;;15.71;63.11
61554;BME280;47425;51.976;5.326;2023-11-19T01:45:20;100598.78;;;15.64;62.61
61554;BME280;47425;51.976;5.326;2023-11-19T01:47:47;100604.06;;;15.64;62.54
61554;BME280;47425;51.976;5.326;2023-11-19T01:50:15;100615.78;;;15.77;62.17
61554;BME280;47425;51.976;5.326;2023-11-19T01:52:42;100608.53;;;15.83;62.11
61554;BME280;47425;51.976;5.326;2023-11-19T01:55:10;100600.63;;;15.83;61.52
61554;BME280;47425;51.976;5.326;2023-11-19T01:57:37;100591.47;;;15.90;61.51
61554;BME280;47425;51.976;5.326;2023-11-19T02:00:06;100596.22;;;15.83;61.60
61554;BME280;47425;51.976;5.326;2023-11-19T02:02:38;100584.69;;;15.84;61.22
61554;BME280;47425;51.976;5.326;2023-11-19T02:05:06;100589.38;;;15.77;61.64
61554;BME280;47425;51.976;5.326;2023-11-19T02:07:35;100583.81;;;15.65;62.33
61554;BME280;47425;51.976;5.326;2023-11-19T02:10:01;100585.72;;;15.61;62.30
61554;BME280;47425;51.976;5.326;2023-11-19T02:12:30;100570.63;;;15.65;61.79
61554;BME280;47425;51.976;5.326;2023-11-19T02:14:58;100596.22;;;15.63;61.81
61554;BME280;47425;51.976;5.326;2023-11-19T02:17:25;100586.66;;;15.60;61.83
61554;BME280;47425;51.976;5.326;2023-11-19T02:19:53;100598.28;;;15.56;61.98
61554;BME280;47425;51.976;5.326;2023-11-19T02:22:20;100593.34;;;15.48;62.12
61554;BME280;47425;51.976;5.326;2023-11-19T02:24:48;100601.25;;;15.48;62.24
61554;BME280;47425;51.976;5.326;2023-11-19T02:27:16;100603.06;;;15.48;62.59
61554;BME280;47425;51.976;5.326;2023-11-19T02:29:47;100604.13;;;15.43;62.33
61554;BME280;47425;51.976;5.326;2023-11-19T02:32:14;100600.97;;;15.35;62.41
61554;BME280;47425;51.976;5.326;2023-11-19T02:34:40;100605.19;;;15.39;62.50
61554;BME280;47425;51.976;5.326;2023-11-19T02:37:07;100600.16;;;15.33;62.64
61554;BME280;47425;51.976;5.326;2023-11-19T02:39:35;100587.97;;;15.31;62.71
61554;BME280;47425;51.976;5.326;2023-11-19T02:42:02;100587.13;;;15.30;62.87
61554;BME280;47425;51.976;5.326;2023-11-19T02:44:29;100606.72;;;15.24;62.97
61554;BME280;47425;51.976;5.326;2023-11-19T02:46:58;100608.88;;;15.15;63.40
61554;BME280;47425;51.976;5.326;2023-11-19T02:49:25;100606.78;;;15.02;63.93
61554;BME280;47425;51.976;5.326;2023-11-19T02:51:51;100600.56;;;15.03;63.99
61554;BME280;47425;51.976;5.326;2023-11-19T02:54:17;100600.50;;;15.05;63.64
61554;BME280;47425;51.976;5.326;2023-11-19T02:56:46;100597.28;;;14.98;63.98
61554;BME280;47425;51.976;5.326;2023-11-19T02:59:21;100593.41;;;15.07;63.50
61554;BME280;47425;51.976;5.326;2023-11-19T03:01:53;100587.97;;;15.10;63.32
61554;BME280;47425;51.976;5.326;2023-11-19T03:04:21;100593.31;;;15.08;63.07
61554;BME280;47425;51.976;5.326;2023-11-19T03:06:48;100600.66;;;15.02;63.64
61554;BME280;47425;51.976;5.326;2023-11-19T03:09:16;100600.78;;;14.99;63.37
61554;BME280;47425;51.976;5.326;2023-11-19T03:11:42;100592.06;;;14.97;63.45
61554;BME280;47425;51.976;5.326;2023-11-19T03:14:09;100600.91;;;14.96;63.58
61554;BME280;47425;51.976;5.326;2023-11-19T03:16:35;100598.41;;;14.92;63.69
61554;BME280;47425;51.976;5.326;2023-11-19T03:19:01;100595.03;;;14.89;63.99
61554;BME280;47425;51.976;5.326;2023-11-19T03:21:31;100597.81;;;14.86;64.19
61554;BME280;47425;51.976;5.326;2023-11-19T03:23:58;100593.44;;;14.85;63.59
61554;BME280;47425;51.976;5.326;2023-11-19T03:26:25;100588.03;;;14.88;63.55
61554;BME280;47425;51.976;5.326;2023-11-19T03:28:52;100590.41;;;14.94;63.51
61554;BME280;47425;51.976;5.326;2023-11-19T03:31:21;100587.59;;;14.99;63.32
61554;BME280;47425;51.976;5.326;2023-11-19T03:33:51;100576.47;;;14.92;63.63
61554;BME280;47425;51.976;5.326;2023-11-19T03:36:17;100568.66;;;14.89;63.49
61554;BME280;47425;51.976;5.326;2023-11-19T03:38:45;100581.66;;;14.93;63.24
61554;BME280;47425;51.976;5.326;2023-11-19T03:41:12;100580.78;;;14.93;63.28
61554;BME280;47425;51.976;5.326;2023-11-19T03:43:38;100571.81;;;14.97;62.90
61554;BME280;47425;51.976;5.326;2023-11-19T03:46:15;100574.34;;;15.00;63.11
61554;BME280;47425;51.976;5.326;2023-11-19T03:48:43;100580.69;;;14.96;62.84
61554;BME280;47425;51.976;5.326;2023-11-19T03:51:09;100581.19;;;15.04;62.89
61554;BME280;47425;51.976;5.326;2023-11-19T03:53:37;100587.13;;;15.09;62.46
61554;BME280;47425;51.976;5.326;2023-11-19T03:56:05;100594.38;;;15.04;62.39
61554;BME280;47425;51.976;5.326;2023-11-19T03:58:32;100586.47;;;15.04;62.53
61554;BME280;47425;51.976;5.326;2023-11-19T04:00:59;100585.41;;;15.08;62.33
61554;BME280;47425;51.976;5.326;2023-11-19T04:03:25;100578.97;;;14.95;62.59
61554;BME280;47425;51.976;5.326;2023-11-19T04:05:52;100592.06;;;14.97;62.93
61554;BME280;47425;51.976;5.326;2023-11-19T04:08:18;100593.47;;;15.05;62.33
61554;BME280;47425;51.976;5.326;2023-11-19T04:10:45;100597.09;;;15.03;62.50
61554;BME280;47425;51.976;5.326;2023-11-19T04:13:12;100603.06;;;15.06;62.39
61554;BME280;47425;51.976;5.326;2023-11-19T04:15:39;100599.66;;;15.04;62.13
61554;BME280;47425;51.976;5.326;2023-11-19T04:18:05;100612.31;;;14.96;62.40
61554;BME280;47425;51.976;5.326;2023-11-19T04:20:32;100610.84;;;14.89;62.82
61554;BME280;47425;51.976;5.326;2023-11-19T04:22:58;100615.41;;;14.85;62.63
61554;BME280;47425;51.976;5.326;2023-11-19T04:25:25;100613.25;;;14.73;62.76
61554;BME280;47425;51.976;5.326;2023-11-19T04:27:52;100601.88;;;14.72;62.92
61554;BME280;47425;51.976;5.326;2023-11-19T04:30:20;100607.22;;;14.71;62.60
61554;BME280;47425;51.976;5.326;2023-11-19T04:32:47;100612.28;;;14.75;63.19
61554;BME280;47425;51.976;5.326;2023-11-19T04:35:15;100616.50;;;14.80;62.49
61554;BME280;47425;51.976;5.326;2023-11-19T04:37:42;100621.53;;;14.86;62.33
61554;BME280;47425;51.976;5.326;2023-11-19T04:40:08;100614.69;;;14.82;62.48
61554;BME280;47425;51.976;5.326;2023-11-19T04:42:35;100623.03;;;14.71;62.41
61554;BME280;47425;51.976;5.326;2023-11-19T04:45:01;100621.25;;;14.71;62.63
61554;BME280;47425;51.976;5.326;2023-11-19T04:47:31;100617.50;;;14.77;62.88
61554;BME280;47425;51.976;5.326;2023-11-19T04:49:59;100616.41;;;14.83;62.50
61554;BME280;47425;51.976;5.326;2023-11-19T04:52:26;100612.03;;;14.82;62.48
61554;BME280;47425;51.976;5.326;2023-11-19T04:54:52;100600.16;;;14.71;62.63
61554;BME280;47425;51.976;5.326;2023-11-19T04:57:19;100611.44;;;14.75;62.17
61554;BME280;47425;51.976;5.326;2023-11-19T04:59:48;100611.19;;;14.81;62.29
61554;BME280;47425;51.976;5.326;2023-11-19T05:02:16;100610.13;;;14.85;62.30
61554;BME280;47425;51.976;5.326;2023-11-19T05:04:44;100614.53;;;14.85;62.06
61554;BME280;47425;51.976;5.326;2023-11-19T05:07:11;100600.97;;;14.73;62.41
61554;BME280;47425;51.976;5.326;2023-11-19T05:09:38;100615.28;;;14.66;62.87
61554;BME280;47425;51.976;5.326;2023-11-19T05:12:05;100605.56;;;14.68;62.36
61554;BME280;47425;51.976;5.326;2023-11-19T05:14:35;100602.72;;;14.73;62.42
61554;BME280;47425;51.976;5.326;2023-11-19T05:17:01;100599.97;;;14.76;62.50
61554;BME280;47425;51.976;5.326;2023-11-19T05:19:26;100608.19;;;14.68;62.30
61554;BME280;47425;51.976;5.326;2023-11-19T05:21:54;100605.44;;;14.71;62.00
61554;BME280;47425;51.976;5.326;2023-11-19T05:24:22;100613.63;;;14.64;62.60
61554;BME280;47425;51.976;5.326;2023-11-19T05:26:49;100613.06;;;14.55;62.61
61554;BME280;47425;51.976;5.326;2023-11-19T05:29:16;100610.09;;;14.65;62.69
61554;BME280;47425;51.976;5.326;2023-11-19T05:31:42;100612.56;;;14.69;62.59
61554;BME280;47425;51.976;5.326;2023-11-19T05:34:09;100610.16;;;14.63;62.65
61554;BME280;47425;51.976;5.326;2023-11-19T05:36:35;100606.66;;;14.63;62.48
61554;BME280;47425;51.976;5.326;2023-11-19T05:39:04;100611.44;;;14.75;62.17
61554;BME280;47425;51.976;5.326;2023-11-19T05:41:31;100605.97;;;14.80;61.90
61554;BME280;47425;51.976;5.326;2023-11-19T05:43:57;100600.97;;;14.73;62.16
61554;BME280;47425;51.976;5.326;2023-11-19T05:46:24;100612.78;;;14.63;62.31
61554;BME280;47425;51.976;5.326;2023-11-19T05:48:50;100620.81;;;14.60;62.05
61554;BME280;47425;51.976;5.326;2023-11-19T05:51:18;100608.53;;;14.59;61.94
61554;BME280;47425;51.976;5.326;2023-11-19T05:53:45;100622.53;;;14.61;62.23
61554;BME280;47425;51.976;5.326;2023-11-19T05:56:13;100617.19;;;14.63;62.24
61554;BME280;47425;51.976;5.326;2023-11-19T05:58:41;100625.97;;;14.63;62.42
61554;BME280;47425;51.976;5.326;2023-11-19T06:01:09;100614.91;;;14.75;62.27
61554;BME280;47425;51.976;5.326;2023-11-19T06:03:37;100616.41;;;14.83;61.42
61554;BME280;47425;51.976;5.326;2023-11-19T06:06:04;100615.28;;;14.88;61.39
61554;BME280;47425;51.976;5.326;2023-11-19T06:08:30;100609.13;;;14.88;61.73
61554;BME280;47425;51.976;5.326;2023-11-19T06:10:59;100617.69;;;14.93;61.92
61554;BME280;47425;51.976;5.326;2023-11-19T06:13:28;100624.53;;;14.99;61.38
61554;BME280;47425;51.976;5.326;2023-11-19T06:15:57;100615.41;;;14.85;61.19
61554;BME280;47425;51.976;5.326;2023-11-19T06:18:23;100620.84;;;14.81;61.81
61554;BME280;47425;51.976;5.326;2023-11-19T06:20:50;100609.25;;;14.85;61.85
61554;BME280;47425;51.976;5.326;2023-11-19T06:23:16;100592.13;;;14.74;61.74
61554;BME280;47425;51.976;5.326;2023-11-19T06:25:43;100596.38;;;14.79;61.76
61554;BME280;47425;51.976;5.326;2023-11-19T06:28:09;100599.97;;;14.76;61.59
61554;BME280;47425;51.976;5.326;2023-11-19T06:30:37;100597.28;;;14.77;61.47
61554;BME280;47425;51.976;5.326;2023-11-19T06:33:03;100613.94;;;14.78;61.70
61554;BME280;47425;51.976;5.326;2023-11-19T06:35:30;100622.66;;;14.80;61.48
61554;BME280;47425;51.976;5.326;2023-11-19T06:38:01;100615.28;;;14.88;61.33
61554;BME280;47425;51.976;5.326;2023-11-19T06:40:28;100624.84;;;14.91;61.28
61554;BME280;47425;51.976;5.326;2023-11-19T06:42:56;100617.03;;;14.88;61.24
61554;BME280;47425;51.976;5.326;2023-11-19T06:45:22;100626.59;;;14.90;61.28
61554;BME280;47425;51.976;5.326;2023-11-19T06:47:50;100631.16;;;14.87;61.54
61554;BME280;47425;51.976;5.326;2023-11-19T06:50:17;100627.78;;;14.83;61.23
61554;BME280;47425;51.976;5.326;2023-11-19T06:52:44;100628.91;;;14.77;61.28
61554;BME280;47425;51.976;5.326;2023-11-19T06:55:12;100623.88;;;14.71;61.82
61554;BME280;47425;51.976;5.326;2023-11-19T06:57:38;100631.72;;;14.73;61.49
61554;BME280;47425;51.976;5.326;2023-11-19T07:00:05;100632.47;;;14.76;61.35
61554;BME280;47425;51.976;5.326;2023-11-19T07:02:32;100648.41;;;14.73;61.49
61554;BME280;47425;51.976;5.326;2023-11-19T07:04:59;100647.44;;;14.76;61.09
61554;BME280;47425;51.976;5.326;2023-11-19T07:07:27;100648.88;;;14.83;61.29
61554;BME280;47425;51.976;5.326;2023-11-19T07:09:54;100648.13;;;14.80;60.93
61554;BME280;47425;51.976;5.326;2023-11-19T07:12:20;100649.19;;;14.75;61.56
61554;BME280;47425;51.976;5.326;2023-11-19T07:14:46;100647.22;;;14.81;61.23
61554;BME280;47425;51.976;5.326;2023-11-19T07:17:13;100659.72;;;14.75;61.62
61554;BME280;47425;51.976;5.326;2023-11-19T07:19:41;100664.31;;;14.70;61.56
61554;BME280;47425;51.976;5.326;2023-11-19T07:22:10;100664.31;;;14.70;61.43
61554;BME280;47425;51.976;5.326;2023-11-19T07:24:38;100664.22;;;14.73;61.30
61554;BME280;47425;51.976;5.326;2023-11-19T07:27:05;100663.03;;;14.81;61.31
61554;BME280;47425;51.976;5.326;2023-11-19T07:29:31;100667.97;;;14.68;61.86
61554;BME280;47425;51.976;5.326;2023-11-19T07:31:59;100673.97;;;14.71;61.60
61554;BME280;47425;51.976;5.326;2023-11-19T07:34:31;100669.91;;;14.63;61.63
61554;BME280;47425;51.976;5.326;2023-11-19T07:36:58;100664.16;;;14.75;61.79
61554;BME280;47425;51.976;5.326;2023-11-19T07:39:28;100672.41;;;14.88;60.88
61554;BME280;47425;51.976;5.326;2023-11-19T07:41:55;100675.03;;;14.88;61.23
61554;BME280;47425;51.976;5.326;2023-11-19T07:44:23;100673.34;;;14.87;61.42
61554;BME280;47425;51.976;5.326;2023-11-19T07:46:51;100676.69;;;14.90;61.18
61554;BME280;47425;51.976;5.326;2023-11-19T07:49:17;100677.31;;;14.97;61.05
61554;BME280;47425;51.976;5.326;2023-11-19T07:51:43;100687.56;;;14.83;61.22
61554;BME280;47425;51.976;5.326;2023-11-19T07:54:10;100677.56;;;14.69;61.54
61554;BME280;47425;51.976;5.326;2023-11-19T07:56:39;100669.56;;;14.72;61.53
61554;BME280;47425;51.976;5.326;2023-11-19T07:59:05;100670.22;;;14.77;61.34
61554;BME280;47425;51.976;5.326;2023-11-19T08:01:32;100664.09;;;14.76;61.44
61554;BME280;47425;51.976;5.326;2023-11-19T08:03:58;100674.41;;;14.83;61.49
61554;BME280;47425;51.976;5.326;2023-11-19T08:06:26;100663.50;;;14.90;61.17
61554;BME280;47425;51.976;5.326;2023-11-19T08:08:53;100680.22;;;14.91;61.38
61554;BME280;47425;51.976;5.326;2023-11-19T08:11:20;100676.06;;;15.06;60.86
61554;BME280;47425;51.976;5.326;2023-11-19T08:13:47;100675.22;;;15.05;60.73
61554;BME280;47425;51.976;5.326;2023-11-19T08:16:14;100680.22;;;15.12;60.81
61554;BME280;47425;51.976;5.326;2023-11-19T08:18:41;100681.13;;;15.10;60.45
61554;BME280;47425;51.976;5.326;2023-11-19T08:21:08;100682.94;;;15.10;60.54
61554;BME280;47425;51.976;5.326;2023-11-19T08:23:36;100677.72;;;15.08;60.48
61554;BME280;47425;51.976;5.326;2023-11-19T08:26:03;100676.91;;;15.06;60.62
61554;BME280;47425;51.976;5.326;2023-11-19T08:28:29;100680.22;;;15.12;60.46
61554;BME280;47425;51.976;5.326;2023-11-19T08:30:57;100671.25;;;15.16;60.50
61554;BME280;47425;51.976;5.326;2023-11-19T08:33:24;100685.84;;;15.24;60.16
61554;BME280;47425;51.976;5.326;2023-11-19T08:35:52;100681.56;;;15.22;59.90
61554;BME280;47425;51.976;5.326;2023-11-19T08:38:18;100690.31;;;15.22;59.84
61554;BME280;47425;51.976;5.326;2023-11-19T08:40:45;100685.97;;;15.21;60.16
61554;BME280;47425;51.976;5.326;2023-11-19T08:43:11;100679.47;;;15.30;59.88
61554;BME280;47425;51.976;5.326;2023-11-19T08:45:38;100683.47;;;15.39;60.09
61554;BME280;47425;51.976;5.326;2023-11-19T08:48:07;100686.91;;;15.41;59.91
61554;BME280;47425;51.976;5.326;2023-11-19T08:50:33;100690.34;;;15.43;59.60
61554;BME280;47425;51.976;5.326;2023-11-19T08:53:00;100690.34;;;15.43;59.83
61554;BME280;47425;51.976;5.326;2023-11-19T08:55:26;100685.19;;;15.40;60.12
61554;BME280;47425;51.976;5.326;2023-11-19T08:57:52;100691.56;;;15.55;60.58
61554;BME280;47425;51.976;5.326;2023-11-19T09:00:20;100688.69;;;15.61;60.17
61554;BME280;47425;51.976;5.326;2023-11-19T09:02:47;100694.03;;;15.59;60.73
61554;BME280;47425;51.976;5.326;2023-11-19T09:05:14;100702.22;;;15.74;60.39
61554;BME280;47425;51.976;5.326;2023-11-19T09:07:41;100705.47;;;15.81;59.89
61554;BME280;47425;51.976;5.326;2023-11-19T09:10:08;100704.25;;;15.88;59.96
61554;BME280;47425;51.976;5.326;2023-11-19T09:12:37;100709.47;;;15.89;60.01
61554;BME280;47425;51.976;5.326;2023-11-19T09:15:04;100700.06;;;16.03;60.20
61554;BME280;47425;51.976;5.326;2023-11-19T09:17:31;100700.50;;;16.13;59.43
61554;BME280;47425;51.976;5.326;2023-11-19T09:19:58;100699.06;;;16.24;59.78
61554;BME280;47425;51.976;5.326;2023-11-19T09:22:26;100687.66;;;16.24;59.38
61554;BME280;47425;51.976;5.326;2023-11-19T09:24:53;100692.78;;;16.27;59.14
61554;BME280;47425;51.976;5.326;2023-11-19T09:27:20;100696.31;;;16.27;58.93
61554;BME280;47425;51.976;5.326;2023-11-19T09:29:46;100699.72;;;16.30;59.34
61554;BME280;47425;51.976;5.326;2023-11-19T09:32:15;100694.84;;;16.39;58.61
61554;BME280;47425;51.976;5.326;2023-11-19T09:34:41;100689.19;;;16.47;59.13
61554;BME280;47425;51.976;5.326;2023-11-19T09:37:09;100687.03;;;16.55;58.40
61554;BME280;47425;51.976;5.326;2023-11-19T09:39:36;100693.06;;;16.59;58.33
61554;BME280;47425;51.976;5.326;2023-11-19T09:42:03;100690.41;;;16.59;58.10
61554;BME280;47425;51.976;5.326;2023-11-19T09:44:30;100680.25;;;16.69;57.82
61554;BME280;47425;51.976;5.326;2023-11-19T09:46:56;100685.69;;;16.66;57.77
61554;BME280;47425;51.976;5.326;2023-11-19T09:49:25;100692.78;;;16.65;57.78
61554;BME280;47425;51.976;5.326;2023-11-19T09:51:52;100691.44;;;16.74;57.91
61554;BME280;47425;51.976;5.326;2023-11-19T09:54:19;100690.75;;;16.88;58.12
61554;BME280;47425;51.976;5.326;2023-11-19T09:56:47;100682.69;;;16.73;56.81
61554;BME280;47425;51.976;5.326;2023-11-19T09:59:14;100693.22;;;16.56;57.95
61554;BME280;47425;51.976;5.326;2023-11-19T10:01:40;100694.84;;;16.58;58.21
61554;BME280;47425;51.976;5.326;2023-11-19T10:04:07;100696.06;;;16.51;58.36
61554;BME280;47425;51.976;5.326;2023-11-19T10:06:34;100709.28;;;16.51;57.66
61554;BME280;47425;51.976;5.326;2023-11-19T10:09:02;100686.06;;;16.39;58.21
61554;BME280;47425;51.976;5.326;2023-11-19T10:11:30;100689.00;;;16.52;58.30
61554;BME280;47425;51.976;5.326;2023-11-19T10:13:57;100675.16;;;16.47;57.96
61554;BME280;47425;51.976;5.326;2023-11-19T10:16:28;100673.13;;;16.52;57.82
61554;BME280;47425;51.976;5.326;2023-11-19T10:18:55;100669.69;;;16.50;57.79
61554;BME280;47425;51.976;5.326;2023-11-19T10:21:21;100662.38;;;16.37;58.15
61554;BME280;47425;51.976;5.326;2023-11-19T10:23:48;100672.78;;;16.40;58.95
61554;BME280;47425;51.976;5.326;2023-11-19T10:26:18;100659.53;;;16.59;58.18
61554;BME280;47425;51.976;5.326;2023-11-19T10:28:45;100663.19;;;16.57;57.76
61554;BME280;47425;51.976;5.326;2023-11-19T10:31:13;100653.59;;;16.54;57.83
61554;BME280;47425;51.976;5.326;2023-11-19T10:33:40;100653.00;;;16.49;57.81
61554;BME280;47425;51.976;5.326;2023-11-19T10:36:07;100651.56;;;16.42;58.41
61554;BME280;47425;51.976;5.326;2023-11-19T10:38:35;100648.63;;;16.48;58.64
61554;BME280;47425;51.976;5.326;2023-11-19T10:41:01;100656.03;;;16.59;58.10
61554;BME280;47425;51.976;5.326;2023-11-19T10:43:28;100651.16;;;16.69;58.13
61554;BME280;47425;51.976;5.326;2023-11-19T10:45:54;100652.41;;;16.79;58.07
61554;BME280;47425;51.976;5.326;2023-11-19T10:48:36;100651.06;;;16.70;57.55
61554;BME280;47425;51.976;5.326;2023-11-19T10:51:02;100635.16;;;16.72;57.14
61554;BME280;47425;51.976;5.326;2023-11-19T10:53:33;100643.13;;;16.70;57.58
61554;BME280;47425;51.976;5.326;2023-11-19T10:55:59;100631.31;;;16.60;57.31
61554;BME280;47425;51.976;5.326;2023-11-19T10:58:28;100639.53;;;16.54;57.91
61554;BME280;47425;51.976;5.326;2023-11-19T11:00:55;100647.19;;;16.41;57.77
61554;BME280;47425;51.976;5.326;2023-11-19T11:03:24;100662.22;;;16.40;58.06
61554;BME280;47425;51.976;5.326;2023-11-19T11:05:54;100649.19;;;16.55;58.26
61554;BME280;47425;51.976;5.326;2023-11-19T11:08:21;100657.97;;;16.55;57.52
61554;BME280;47425;51.976;5.326;2023-11-19T11:10:48;100654.47;;;16.55;58.27
61554;BME280;47425;51.976;5.326;2023-11-19T11:13:18;100662.34;;;16.56;57.21
61554;BME280;47425;51.976;5.326;2023-11-19T11:15:45;100668.28;;;16.42;58.24
61554;BME280;47425;51.976;5.326;2023-11-19T11:18:13;100664.19;;;16.54;58.30
61554;BME280;47425;51.976;5.326;2023-11-19T11:20:39;100664.63;;;16.64;57.81
61554;BME280;47425;51.976;5.326;2023-11-19T11:23:14;100657.16;;;16.72;57.64
61554;BME280;47425;51.976;5.326;2023-11-19T11:25:49;100655.81;;;16.64;57.45
61554;BME280;47425;51.976;5.326;2023-11-19T11:28:26;100665.78;;;16.39;57.96
61554;BME280;47425;51.976;5.326;2023-11-19T11:31:01;100660.28;;;16.44;58.32
61554;BME280;47425;51.976;5.326;2023-11-19T11:33:34;100642.63;;;16.44;58.15
61554;BME280;47425;51.976;5.326;2023-11-19T11:36:09;100642.44;;;16.49;57.38
61554;BME280;47425;51.976;5.326;2023-11-19T11:38:41;100640.53;;;16.51;57.70
61554;BME280;47425;51.976;5.326;2023-11-19T11:41:21;100636.19;;;16.50;57.68
61554;BME280;47425;51.976;5.326;2023-11-19T11:43:48;100635.19;;;16.53;58.24
61554;BME280;47425;51.976;5.326;2023-11-19T11:49:01;100637.97;;;16.50;57.88
61554;BME280;47425;51.976;5.326;2023-11-19T11:54:25;100632.13;;;16.43;58.00
61554;BME280;47425;51.976;5.326;2023-11-19T11:57:03;100623.19;;;16.46;57.80
61554;BME280;47425;51.976;5.326;2023-11-19T11:59:34;100629.06;;;16.52;57.32
61554;BME280;47425;51.976;5.326;2023-11-19T12:02:03;100626.25;;;16.55;56.95
61554;BME280;47425;51.976;5.326;2023-11-19T12:04:30;100628.59;;;16.61;57.29
61554;BME280;47425;51.976;5.326;2023-11-19T12:07:03;100627.28;;;16.70;56.77
61554;BME280;47425;51.976;5.326;2023-11-19T12:09:33;100624.03;;;16.65;57.19
61554;BME280;47425;51.976;5.326;2023-11-19T12:12:13;100621.59;;;16.78;57.34
61554;BME280;47425;51.976;5.326;2023-11-19T12:17:36;100618.34;;;16.73;56.55
61554;BME280;47425;51.976;5.326;2023-11-19T12:20:04;100621.06;;;16.71;56.37
61554;BME280;47425;51.976;5.326;2023-11-19T12:22:35;100609.94;;;16.65;56.94
61554;BME280;47425;51.976;5.326;2023-11-19T12:25:03;100606.44;;;16.64;56.68
61554;BME280;47425;51.976;5.326;2023-11-19T12:27:30;100614.94;;;16.71;57.38
61554;BME280;47425;51.976;5.326;2023-11-19T12:29:59;100616.56;;;16.73;57.06
61554;BME280;47425;51.976;5.326;2023-11-19T12:32:25;100624.34;;;16.76;57.13
61554;BME280;47425;51.976;5.326;2023-11-19T12:34:51;100614.06;;;16.88;56.81
61554;BME280;47425;51.976;5.326;2023-11-19T12:37:18;100614.34;;;17.01;56.79
61554;BME280;47425;51.976;5.326;2023-11-19T12:39:45;100622.91;;;17.06;56.28
61554;BME280;47425;51.976;5.326;2023-11-19T12:42:13;100621.44;;;17.00;56.15
61554;BME280;47425;51.976;5.326;2023-11-19T12:44:39;100616.44;;;16.94;56.34
61554;BME280;47425;51.976;5.326;2023-11-19T12:47:18;100611.63;;;17.02;56.08
61554;BME280;47425;51.976;5.326;2023-11-19T12:49:54;100615.34;;;16.98;55.73
61554;BME280;47425;51.976;5.326;2023-11-19T12:52:21;100615.06;;;16.85;56.22
61554;BME280;47425;51.976;5.326;2023-11-19T12:54:48;100617.88;;;16.82;56.57
61554;BME280;47425;51.976;5.326;2023-11-19T12:57:16;100625.59;;;16.87;56.42
61554;BME280;47425;51.976;5.326;2023-11-19T12:59:54;100616.88;;;16.85;56.41
61554;BME280;47425;51.976;5.326;2023-11-19T13:02:22;100613.03;;;16.73;56.61